createdAt,value
2018-03-20T00:01:38.197Z,15.38
2018-03-20T00:04:06.385Z,15.25
2018-03-20T00:06:34.562Z,16.02
2018-03-20T00:09:02.761Z,15.25
2018-03-20T00:11:30.961Z,15.45
2018-03-20T00:13:59.156Z,15.90
2018-03-20T00:16:27.356Z,15.75
2018-03-20T00:18:55.639Z,15.48
2018-03-20T00:21:23.901Z,16.48
2018-03-20T00:23:52.751Z,16.77
2018-03-20T00:26:20.842Z,15.90
2018-03-20T00:28:49.037Z,16.60
2018-03-20T00:31:17.265Z,16.60
2018-03-20T00:33:45.525Z,15.43
2018-03-20T00:36:13.727Z,15.40
2018-03-20T00:38:41.885Z,15.55
2018-03-20T00:41:10.204Z,15.93
2018-03-20T00:43:38.615Z,17.15
2018-03-20T00:46:06.904Z,17.00
2018-03-20T00:48:35.100Z,18.00
2018-03-20T00:51:03.411Z,16.75
2018-03-20T00:53:31.877Z,16.70
2018-03-20T00:56:00.104Z,16.60
2018-03-20T00:58:28.499Z,15.85
2018-03-20T01:00:56.785Z,18.00
2018-03-20T01:03:25.099Z,18.05
2018-03-20T01:05:53.300Z,18.60
2018-03-20T01:08:21.384Z,18.12
2018-03-20T01:10:49.676Z,17.85
2018-03-20T01:13:18.058Z,16.50
2018-03-20T01:15:46.355Z,18.10
2018-03-20T01:18:14.515Z,18.12
2018-03-20T01:20:42.759Z,18.58
2018-03-20T01:23:11.061Z,19.12
2018-03-20T01:25:39.441Z,18.12
2018-03-20T01:28:07.738Z,18.23
2018-03-20T01:30:35.842Z,17.00
2018-03-20T01:33:04.038Z,16.58
2018-03-20T01:35:32.201Z,18.02
2018-03-20T01:38:00.344Z,18.45
2018-03-20T01:40:28.518Z,16.40
2018-03-20T01:42:57.422Z,18.70
2018-03-20T01:45:25.624Z,15.98
2018-03-20T01:47:53.562Z,16.23
2018-03-20T01:50:21.695Z,17.15
2018-03-20T01:52:49.996Z,15.68
2018-03-20T01:55:18.299Z,16.20
2018-03-20T01:57:46.701Z,17.10
2018-03-20T02:00:15.096Z,18.48
2018-03-20T02:02:43.396Z,16.65
2018-03-20T02:05:11.522Z,16.58
2018-03-20T02:07:39.742Z,16.70
2018-03-20T02:10:07.859Z,17.08
2018-03-20T02:12:36.354Z,17.55
2018-03-20T02:15:04.574Z,18.77
2018-03-20T02:17:32.864Z,17.67
2018-03-20T02:20:01.175Z,17.45
2018-03-20T02:22:29.366Z,16.62
2018-03-20T02:24:57.845Z,17.25
2018-03-20T02:27:25.920Z,17.23
2018-03-20T02:29:54.048Z,17.33
2018-03-20T02:32:22.242Z,18.42
2018-03-20T02:34:50.739Z,18.20
2018-03-20T02:37:19.034Z,16.73
2018-03-20T02:39:47.360Z,18.83
2018-03-20T02:42:15.720Z,17.90
2018-03-20T02:44:44.022Z,17.85
2018-03-20T02:47:12.318Z,19.20
2018-03-20T02:49:40.616Z,17.75
2018-03-20T02:52:08.818Z,18.30
2018-03-20T02:54:37.019Z,20.95
2018-03-20T02:57:05.099Z,17.95
2018-03-20T02:59:33.289Z,20.27
2018-03-20T03:02:01.581Z,19.40
2018-03-20T03:04:29.878Z,19.40
2018-03-20T03:06:58.198Z,18.30
2018-03-20T03:09:26.411Z,19.55
2018-03-20T03:11:54.665Z,19.45
2018-03-20T03:14:22.850Z,18.35
2018-03-20T03:16:51.165Z,18.45
2018-03-20T03:19:19.449Z,18.58
2018-03-20T03:21:47.758Z,19.73
2018-03-20T03:24:16.066Z,17.50
2018-03-20T03:26:44.355Z,17.40
2018-03-20T03:29:12.542Z,18.90
2018-03-20T03:31:40.627Z,17.90
2018-03-20T03:34:09.063Z,18.08
2018-03-20T03:36:37.238Z,17.90
2018-03-20T03:39:05.427Z,16.67
2018-03-20T03:41:33.529Z,18.92
2018-03-20T03:44:01.723Z,18.12
2018-03-20T03:46:29.876Z,16.90
2018-03-20T03:48:58.089Z,17.58
2018-03-20T03:51:26.290Z,17.98
2018-03-20T03:53:54.998Z,17.27
2018-03-20T03:56:23.280Z,16.98
2018-03-20T03:58:52.510Z,18.58
2018-03-20T04:01:20.835Z,17.60
2018-03-20T04:03:49.097Z,17.15
2018-03-20T04:06:17.418Z,18.52
2018-03-20T04:08:45.699Z,16.65
2018-03-20T04:11:13.849Z,18.05
2018-03-20T04:13:42.078Z,16.95
2018-03-20T04:16:10.380Z,18.92
2018-03-20T04:18:38.578Z,17.15
2018-03-20T04:21:06.768Z,19.77
2018-03-20T04:23:34.973Z,17.33
2018-03-20T04:26:03.235Z,17.08
2018-03-20T04:28:31.362Z,19.85
2018-03-20T04:30:59.434Z,18.20
2018-03-20T04:33:27.465Z,18.75
2018-03-20T04:35:55.626Z,18.90
2018-03-20T04:38:23.934Z,18.98
2018-03-20T04:40:52.127Z,18.90
2018-03-20T04:43:20.314Z,18.35
2018-03-20T04:45:48.619Z,19.05
2018-03-20T04:48:16.828Z,19.85
2018-03-20T04:50:45.103Z,19.30
2018-03-20T04:53:13.261Z,19.45
2018-03-20T04:55:41.698Z,17.55
2018-03-20T04:58:09.886Z,19.35
2018-03-20T05:00:38.096Z,16.00
2018-03-20T05:03:06.295Z,18.12
2018-03-20T05:05:34.591Z,19.50
2018-03-20T05:08:02.784Z,18.80
2018-03-20T05:10:30.956Z,19.10
2018-03-20T05:12:59.055Z,19.40
2018-03-20T05:15:27.112Z,19.12
2018-03-20T05:17:55.457Z,18.00
2018-03-20T05:20:23.716Z,17.58
2018-03-20T05:22:52.040Z,18.25
2018-03-20T05:25:20.339Z,18.15
2018-03-20T05:27:48.638Z,18.87
2018-03-20T05:30:16.936Z,17.95
2018-03-20T05:32:45.219Z,18.42
2018-03-20T05:35:13.434Z,20.70
2018-03-20T05:37:41.615Z,18.50
2018-03-20T05:40:09.717Z,20.02
2018-03-20T05:42:38.007Z,20.55
2018-03-20T05:45:06.191Z,19.25
2018-03-20T05:47:34.509Z,16.52
2018-03-20T05:50:03.005Z,16.62
2018-03-20T05:52:31.195Z,18.48
2018-03-20T05:54:59.301Z,17.27
2018-03-20T05:57:27.589Z,18.60
2018-03-20T05:59:55.720Z,17.12
2018-03-20T06:02:23.964Z,17.87
2018-03-20T06:04:52.267Z,19.10
2018-03-20T06:07:20.767Z,18.50
2018-03-20T06:09:49.109Z,17.23
2018-03-20T06:12:17.477Z,19.48
2018-03-20T06:14:46.459Z,19.42
2018-03-20T06:17:14.581Z,17.92
2018-03-20T06:19:42.875Z,17.45
2018-03-20T06:22:11.058Z,18.80
2018-03-20T06:24:39.877Z,18.15
2018-03-20T06:27:08.054Z,17.30
2018-03-20T06:29:36.158Z,17.70
2018-03-20T06:32:04.342Z,17.80
2018-03-20T06:34:32.351Z,18.60
2018-03-20T06:37:00.414Z,17.73
2018-03-20T06:39:28.718Z,17.85
2018-03-20T06:41:57.121Z,23.42
2018-03-20T06:44:25.424Z,20.17
2018-03-20T06:46:53.712Z,18.45
2018-03-20T06:49:21.826Z,17.98
2018-03-20T06:51:50.113Z,18.27
2018-03-20T06:54:18.401Z,20.48
2018-03-20T06:56:46.606Z,19.55
2018-03-20T06:59:14.609Z,20.33
2018-03-20T07:01:42.774Z,18.35
2018-03-20T07:04:10.877Z,18.90
2018-03-20T07:06:39.073Z,19.58
2018-03-20T07:09:07.272Z,19.52
2018-03-20T07:11:35.460Z,18.87
2018-03-20T07:14:03.655Z,19.67
2018-03-20T07:16:31.857Z,20.50
2018-03-20T07:18:59.956Z,18.48
2018-03-20T07:21:28.195Z,19.85
2018-03-20T07:23:56.530Z,17.85
2018-03-20T07:26:24.938Z,17.10
2018-03-20T07:28:53.237Z,17.58
2018-03-20T07:31:21.632Z,18.98
2018-03-20T07:33:49.815Z,17.80
2018-03-20T07:36:18.024Z,16.83
2018-03-20T07:38:46.114Z,16.58
2018-03-20T07:41:14.308Z,18.42
2018-03-20T07:43:42.399Z,19.35
2018-03-20T07:46:10.478Z,19.02
2018-03-20T07:48:38.690Z,18.20
2018-03-20T07:51:06.870Z,19.62
2018-03-20T07:53:34.974Z,19.77
2018-03-20T07:56:03.165Z,19.12
2018-03-20T07:58:31.466Z,18.92
2018-03-20T08:00:59.609Z,18.67
2018-03-20T08:03:27.845Z,17.10
2018-03-20T08:05:56.241Z,18.52
2018-03-20T08:08:24.547Z,20.02
2018-03-20T08:10:52.838Z,20.30
2018-03-20T08:13:21.540Z,17.50
2018-03-20T08:15:49.737Z,19.73
2018-03-20T08:18:17.944Z,19.87
2018-03-20T08:20:46.232Z,18.08
2018-03-20T08:23:15.353Z,19.12
2018-03-20T08:25:43.535Z,20.08
2018-03-20T08:28:11.631Z,18.55
2018-03-20T08:30:39.716Z,20.20
2018-03-20T08:33:07.920Z,20.60
2018-03-20T08:35:36.212Z,19.40
2018-03-20T08:38:04.409Z,21.17
2018-03-20T08:40:32.349Z,23.48
2018-03-20T08:43:00.314Z,23.10
2018-03-20T08:45:28.582Z,23.33
2018-03-20T08:47:56.776Z,24.15
2018-03-20T08:50:24.974Z,21.80
2018-03-20T08:52:53.270Z,23.85
2018-03-20T08:55:21.362Z,23.10
2018-03-20T08:57:49.562Z,23.17
2018-03-20T09:00:17.748Z,24.63
2018-03-20T09:02:45.946Z,24.13
2018-03-20T09:05:14.036Z,25.60
2018-03-20T09:07:42.237Z,25.90
2018-03-20T09:10:10.316Z,25.10
2018-03-20T09:12:38.514Z,26.03
2018-03-20T09:15:06.710Z,26.60
2018-03-20T09:17:35.004Z,28.80
2018-03-20T09:20:03.305Z,26.07
2018-03-20T09:22:31.594Z,26.40
2018-03-20T09:24:59.703Z,25.63
2018-03-20T09:27:28.095Z,26.07
2018-03-20T09:29:56.437Z,26.40
2018-03-20T09:32:24.781Z,27.13
2018-03-20T09:34:52.876Z,27.57
2018-03-20T09:37:21.076Z,25.70
2018-03-20T09:39:49.281Z,26.17
2018-03-20T09:42:17.462Z,26.90
2018-03-20T09:44:45.760Z,27.80
2018-03-20T09:47:13.975Z,24.43
2018-03-20T09:49:42.066Z,23.10
2018-03-20T09:52:10.246Z,22.80
2018-03-20T09:54:38.426Z,23.70
2018-03-20T09:57:06.622Z,23.05
2018-03-20T09:59:34.621Z,21.92
2018-03-20T10:02:02.924Z,21.87
2018-03-20T10:04:31.322Z,22.90
2018-03-20T10:06:59.507Z,20.48
2018-03-20T10:09:27.601Z,19.50
2018-03-20T10:11:56.003Z,21.40
2018-03-20T10:14:24.100Z,21.77
2018-03-20T10:16:52.280Z,19.17
2018-03-20T10:19:20.375Z,17.12
2018-03-20T10:21:48.577Z,17.37
2018-03-20T10:24:16.765Z,18.08
2018-03-20T10:26:44.964Z,15.65
2018-03-20T10:29:13.055Z,16.70
2018-03-20T10:31:41.155Z,16.15
2018-03-20T10:34:09.351Z,14.87
2018-03-20T10:36:37.432Z,15.30
2018-03-20T10:39:05.835Z,16.92
2018-03-20T10:41:34.806Z,16.37
2018-03-20T10:44:03.030Z,16.73
2018-03-20T10:46:31.239Z,16.42
2018-03-20T10:48:59.384Z,14.13
2018-03-20T10:51:27.514Z,14.68
2018-03-20T10:53:55.818Z,12.98
2018-03-20T10:56:24.016Z,13.75
2018-03-20T10:58:52.205Z,13.60
2018-03-20T11:01:20.286Z,14.45
2018-03-20T11:03:48.482Z,13.00
2018-03-20T11:06:16.579Z,14.68
2018-03-20T11:08:44.775Z,13.43
2018-03-20T11:11:12.979Z,14.02
2018-03-20T11:13:41.262Z,15.20
2018-03-20T11:16:09.352Z,13.23
2018-03-20T11:18:37.757Z,14.52
2018-03-20T11:21:05.946Z,17.02
2018-03-20T11:23:34.251Z,14.77
2018-03-20T11:26:02.348Z,15.75
2018-03-20T11:28:30.642Z,14.45
2018-03-20T11:30:58.934Z,13.68
2018-03-20T11:33:27.025Z,13.88
2018-03-20T11:35:55.111Z,13.85
2018-03-20T11:38:23.313Z,14.07
2018-03-20T11:40:51.510Z,12.73
2018-03-20T11:43:19.697Z,12.98
2018-03-20T11:45:47.905Z,12.90
2018-03-20T11:48:16.086Z,13.62
2018-03-20T11:50:44.174Z,14.05
2018-03-20T11:53:12.371Z,16.17
2018-03-20T11:55:40.878Z,14.48
2018-03-20T11:58:09.182Z,15.30
2018-03-20T12:00:37.369Z,13.75
2018-03-20T12:03:05.569Z,16.67
2018-03-20T12:05:33.769Z,15.32
2018-03-20T12:08:02.148Z,14.87
2018-03-20T12:10:30.248Z,15.70
2018-03-20T12:12:58.348Z,14.87
2018-03-20T12:15:26.337Z,14.75
2018-03-20T12:17:54.528Z,14.05
2018-03-20T12:20:22.711Z,15.98
2018-03-20T12:22:50.911Z,14.40
2018-03-20T12:25:19.192Z,15.45
2018-03-20T12:27:47.306Z,15.50
2018-03-20T12:30:15.386Z,14.98
2018-03-20T12:32:43.596Z,15.10
2018-03-20T12:35:11.674Z,15.98
2018-03-20T12:37:39.871Z,16.70
2018-03-20T12:40:08.065Z,16.02
2018-03-20T12:42:36.163Z,16.40
2018-03-20T12:45:04.558Z,15.80
2018-03-20T12:47:32.958Z,16.55
2018-03-20T12:50:01.252Z,14.30
2018-03-20T12:52:29.459Z,16.55
2018-03-20T12:54:57.639Z,16.70
2018-03-20T12:57:25.852Z,16.48
2018-03-20T12:59:54.741Z,16.55
2018-03-20T13:02:22.948Z,17.20
2018-03-20T13:04:51.037Z,18.55
2018-03-20T13:07:19.342Z,16.17
2018-03-20T13:09:47.537Z,16.70
2018-03-20T13:12:15.717Z,18.30
2018-03-20T13:14:43.817Z,17.12
2018-03-20T13:17:11.897Z,16.25
2018-03-20T13:19:40.818Z,17.05
2018-03-20T13:22:09.017Z,17.23
2018-03-20T13:24:37.099Z,18.02
2018-03-20T13:27:05.297Z,17.67
2018-03-20T13:29:33.596Z,18.77
2018-03-20T13:32:01.689Z,17.52
2018-03-20T13:34:29.779Z,17.50
2018-03-20T13:36:57.862Z,18.50
2018-03-20T13:39:26.064Z,18.00
2018-03-20T13:41:54.164Z,16.75
2018-03-20T13:44:22.377Z,16.80
2018-03-20T13:46:50.851Z,17.30
2018-03-20T13:49:19.043Z,17.10
2018-03-20T13:51:47.237Z,17.67
2018-03-20T13:54:15.444Z,17.98
2018-03-20T13:56:43.724Z,18.33
2018-03-20T13:59:11.936Z,17.17
2018-03-20T14:01:40.331Z,18.02
2018-03-20T14:04:08.516Z,17.40
2018-03-20T14:06:36.708Z,17.50
2018-03-20T14:09:04.907Z,16.55
2018-03-20T14:11:33.099Z,17.55
2018-03-20T14:14:01.308Z,17.02
2018-03-20T14:16:29.492Z,16.87
2018-03-20T14:18:57.586Z,17.08
2018-03-20T14:21:25.791Z,18.12
2018-03-20T14:23:54.070Z,18.08
2018-03-20T14:26:22.172Z,16.08
2018-03-20T14:28:50.460Z,18.15
2018-03-20T14:31:18.607Z,17.37
2018-03-20T14:33:46.852Z,17.95
2018-03-20T14:36:14.951Z,18.80
2018-03-20T14:38:43.338Z,19.40
2018-03-20T14:41:11.536Z,19.95
2018-03-20T14:43:39.728Z,19.55
2018-03-20T14:46:08.335Z,20.12
2018-03-20T14:48:36.625Z,19.95
2018-03-20T14:51:04.835Z,19.75
2018-03-20T14:53:33.123Z,18.10
2018-03-20T14:56:01.627Z,19.30
2018-03-20T14:58:29.810Z,18.50
2018-03-20T15:00:57.900Z,18.70
2018-03-20T15:03:26.069Z,18.67
2018-03-20T15:05:54.213Z,17.37
2018-03-20T15:08:22.283Z,17.73
2018-03-20T15:10:50.490Z,17.92
2018-03-20T15:13:18.685Z,17.75
2018-03-20T15:15:46.891Z,18.87
2018-03-20T15:18:15.062Z,17.48
2018-03-20T15:20:43.474Z,17.75
2018-03-20T15:23:11.906Z,18.73
2018-03-20T15:25:40.167Z,18.05
2018-03-20T15:28:08.621Z,19.33
2018-03-20T15:30:36.977Z,17.75
2018-03-20T15:33:05.383Z,17.92
2018-03-20T15:35:33.856Z,20.52
2018-03-20T15:38:02.255Z,19.33
2018-03-20T15:40:30.462Z,20.70
2018-03-20T15:42:58.642Z,16.55
2018-03-20T15:45:26.694Z,17.60
2018-03-20T15:47:54.940Z,18.52
2018-03-20T15:50:23.125Z,18.30
2018-03-20T15:52:51.364Z,18.75
2018-03-20T15:55:19.520Z,18.10
2018-03-20T15:57:47.725Z,18.23
2018-03-20T16:00:15.900Z,18.73
2018-03-20T16:02:44.005Z,17.27
2018-03-20T16:05:12.286Z,18.05
2018-03-20T16:07:40.579Z,17.70
2018-03-20T16:10:08.880Z,18.60
2018-03-20T16:12:37.286Z,18.83
2018-03-20T16:15:05.402Z,16.25
2018-03-20T16:17:33.481Z,19.00
2018-03-20T16:20:01.675Z,18.48
2018-03-20T16:22:30.256Z,18.70
2018-03-20T16:24:58.462Z,18.30
2018-03-20T16:27:26.654Z,20.00
2018-03-20T16:29:54.856Z,17.77
2018-03-20T16:32:23.050Z,20.77
2018-03-20T16:34:51.142Z,19.73
2018-03-20T16:37:19.344Z,20.90
2018-03-20T16:39:47.527Z,19.30
2018-03-20T16:42:15.833Z,18.08
2018-03-20T16:44:44.115Z,18.62
2018-03-20T16:47:13.232Z,19.30
2018-03-20T16:49:41.526Z,19.83
2018-03-20T16:52:09.944Z,19.95
2018-03-20T16:54:38.128Z,18.12
2018-03-20T16:57:06.230Z,20.55
2018-03-20T16:59:34.414Z,18.75
2018-03-20T17:02:02.610Z,16.92
2018-03-20T17:04:30.691Z,20.35
2018-03-20T17:06:58.788Z,18.73
2018-03-20T17:09:26.879Z,17.77
2018-03-20T17:11:54.979Z,19.23
2018-03-20T17:14:23.193Z,18.25
2018-03-20T17:16:51.358Z,17.48
2018-03-20T17:19:19.556Z,17.85
2018-03-20T17:21:47.851Z,15.48
2018-03-20T17:24:16.153Z,19.85
2018-03-20T17:26:44.352Z,17.87
2018-03-20T17:29:12.536Z,19.25
2018-03-20T17:31:40.728Z,18.02
2018-03-20T17:34:08.934Z,20.85
2018-03-20T17:36:37.117Z,20.80
2018-03-20T17:39:06.358Z,18.65
2018-03-20T17:41:34.638Z,19.05
2018-03-20T17:44:02.827Z,20.35
2018-03-20T17:46:31.039Z,18.75
2018-03-20T17:48:59.177Z,19.67
2018-03-20T17:51:27.417Z,18.48
2018-03-20T17:53:55.497Z,19.75
2018-03-20T17:56:23.685Z,18.58
2018-03-20T17:58:51.797Z,17.77
2018-03-20T18:01:19.977Z,17.60
2018-03-20T18:03:48.179Z,19.70
2018-03-20T18:06:16.377Z,19.23
2018-03-20T18:08:44.478Z,19.08
2018-03-20T18:11:12.658Z,19.80
2018-03-20T18:13:41.048Z,19.80
2018-03-20T18:16:09.457Z,18.48
2018-03-20T18:18:37.549Z,19.58
2018-03-20T18:21:05.746Z,21.60
2018-03-20T18:23:33.838Z,20.10
2018-03-20T18:26:02.200Z,22.02
2018-03-20T18:28:30.258Z,21.95
2018-03-20T18:30:58.429Z,22.37
2018-03-20T18:33:27.531Z,20.15
2018-03-20T18:35:55.775Z,20.30
2018-03-20T18:38:23.812Z,18.80
2018-03-20T18:40:52.017Z,19.42
2018-03-20T18:43:20.213Z,19.85
2018-03-20T18:45:48.414Z,20.60
2018-03-20T18:48:16.382Z,21.80
2018-03-20T18:50:44.694Z,19.92
2018-03-20T18:53:13.415Z,19.20
2018-03-20T18:55:41.534Z,19.60
2018-03-20T18:58:09.653Z,23.48
2018-03-20T19:00:37.873Z,21.42
2018-03-20T19:03:06.075Z,19.35
2018-03-20T19:05:34.298Z,19.58
2018-03-20T19:08:02.479Z,19.95
2018-03-20T19:10:30.753Z,19.95
2018-03-20T19:12:58.953Z,21.52
2018-03-20T19:15:27.154Z,19.90
2018-03-20T19:17:55.134Z,21.23
2018-03-20T19:20:23.433Z,24.87
2018-03-20T19:22:51.515Z,22.75
2018-03-20T19:25:19.813Z,21.58
2018-03-20T19:27:47.973Z,21.73
2018-03-20T19:30:16.086Z,22.55
2018-03-20T19:32:44.320Z,21.75
2018-03-20T19:35:12.500Z,28.45
2018-03-20T19:37:40.706Z,23.50
2018-03-20T19:40:09.819Z,23.05
2018-03-20T19:42:37.999Z,23.45
2018-03-20T19:45:06.297Z,23.00
2018-03-20T19:47:34.430Z,21.92
2018-03-20T19:50:02.531Z,23.75
2018-03-20T19:52:30.791Z,22.27
2018-03-20T19:54:58.931Z,22.08
2018-03-20T19:57:27.131Z,21.02
2018-03-20T19:59:55.251Z,21.35
2018-03-20T20:02:23.576Z,21.15
2018-03-20T20:04:52.376Z,22.60
2018-03-20T20:07:20.550Z,21.85
2018-03-20T20:09:48.655Z,22.75
2018-03-20T20:12:16.842Z,22.35
2018-03-20T20:14:44.944Z,23.10
2018-03-20T20:17:13.125Z,22.20
2018-03-20T20:19:41.285Z,21.40
2018-03-20T20:22:09.565Z,22.48
2018-03-20T20:24:37.825Z,21.50
2018-03-20T20:27:09.184Z,22.02
2018-03-20T20:29:37.265Z,20.12
2018-03-20T20:32:05.429Z,22.55
2018-03-20T20:34:33.610Z,23.60
2018-03-20T20:37:01.965Z,23.00
2018-03-20T20:39:30.168Z,21.55
2018-03-20T20:41:58.327Z,23.05
2018-03-20T20:44:26.452Z,22.15
2018-03-20T20:46:54.690Z,22.87
2018-03-20T20:49:23.042Z,20.40
2018-03-20T20:51:51.141Z,21.55
2018-03-20T20:54:19.560Z,19.73
2018-03-20T20:56:47.863Z,20.12
2018-03-20T20:59:15.920Z,19.42
2018-03-20T21:01:44.201Z,20.12
2018-03-20T21:04:12.398Z,20.35
2018-03-20T21:06:40.610Z,20.50
2018-03-20T21:09:08.806Z,20.23
2018-03-20T21:11:36.986Z,19.40
2018-03-20T21:14:05.066Z,21.10
2018-03-20T21:16:33.262Z,20.42
2018-03-20T21:19:01.363Z,19.87
2018-03-20T21:21:29.561Z,20.33
2018-03-20T21:23:57.754Z,21.58
2018-03-20T21:26:26.199Z,36.60
2018-03-20T21:28:54.462Z,36.08
2018-03-20T21:31:22.582Z,24.70
2018-03-20T21:33:50.652Z,22.30
2018-03-20T21:36:18.850Z,23.12
2018-03-20T21:38:47.215Z,21.60
2018-03-20T21:41:15.655Z,21.50
2018-03-20T21:43:43.783Z,20.48
2018-03-20T21:46:11.995Z,20.62
2018-03-20T21:48:40.114Z,20.52
2018-03-20T21:51:08.209Z,19.52
2018-03-20T21:53:37.037Z,18.17
2018-03-20T21:56:05.021Z,17.80
2018-03-20T21:58:33.280Z,17.12
2018-03-20T22:01:01.381Z,14.52
2018-03-20T22:03:29.574Z,16.42
2018-03-20T22:05:57.671Z,15.02
2018-03-20T22:08:25.878Z,13.75
2018-03-20T22:10:54.056Z,13.75
2018-03-20T22:13:22.356Z,11.68
2018-03-20T22:15:50.658Z,13.10
2018-03-20T22:18:18.845Z,14.35
2018-03-20T22:20:47.012Z,14.80
2018-03-20T22:23:15.194Z,15.82
2018-03-20T22:25:43.424Z,15.93
2018-03-20T22:28:11.942Z,17.45
2018-03-20T22:30:39.925Z,18.75
2018-03-20T22:33:08.225Z,18.08
2018-03-20T22:35:36.405Z,19.23
2018-03-20T22:38:04.712Z,17.92
2018-03-20T22:40:32.810Z,19.62
2018-03-20T22:43:01.095Z,19.77
2018-03-20T22:45:29.191Z,20.65
2018-03-20T22:47:57.585Z,21.05
2018-03-20T22:50:25.884Z,19.55
2018-03-20T22:52:54.089Z,20.37
2018-03-20T22:55:22.286Z,19.55
2018-03-20T22:57:50.689Z,19.17
2018-03-20T23:00:19.404Z,20.02
2018-03-20T23:02:47.677Z,23.38
2018-03-20T23:05:15.780Z,21.52
2018-03-20T23:07:44.077Z,20.00
2018-03-20T23:10:12.099Z,21.70
2018-03-20T23:12:40.445Z,20.35
2018-03-20T23:15:08.689Z,20.95
2018-03-20T23:17:36.946Z,21.35
2018-03-20T23:20:04.979Z,16.62
2018-03-20T23:22:33.194Z,15.35
2018-03-20T23:25:01.623Z,15.30
2018-03-20T23:27:30.033Z,14.27
2018-03-20T23:29:59.250Z,10.95
2018-03-20T23:32:27.653Z,11.15
2018-03-20T23:34:55.837Z,14.50
2018-03-20T23:37:24.135Z,16.58
2018-03-20T23:39:52.651Z,12.70
2018-03-20T23:42:21.344Z,11.55
2018-03-20T23:44:49.540Z,12.00
2018-03-20T23:47:17.634Z,13.13
2018-03-20T23:49:45.785Z,12.98
2018-03-20T23:52:13.829Z,15.45
2018-03-20T23:54:41.911Z,15.30
2018-03-20T23:57:10.097Z,13.30
2018-03-20T23:59:38.167Z,13.10
